Time;durP1;ratioP1;P1;durP2;ratioP2;P2;SDS_P1;SDS_P2;PMS_P1;PMS_P2;Temp;Humidity;BMP_temperature;BMP_pressure;BME280_temperature;BME280_humidity;BME280_pressure;Samples;Min_cycle;Max_cycle;Signal;HPM_P1;HPM_P2
2023/03/27 00:02:25;;;;;;;5.72;2.70;;;;;;;;;;5080712;28;20119;-71
2023/03/27 00:05:11;;;;;;;2.20;1.92;;;;;;;;;;5079991;28;20024;-71
2023/03/27 00:08:00;;;;;;;2.75;2.28;;;;;;;;;;5094324;28;20035;-71
2023/03/27 00:10:46;;;;;;;2.58;1.80;;;;;;;;;;5080296;28;20027;-73
2023/03/27 00:13:32;;;;;;;2.00;1.60;;;;;;;;;;5095650;28;20109;-72
2023/03/27 00:16:18;;;;;;;1.33;1.20;;;;;;;;;;5081413;28;20085;-73
2023/03/27 00:19:04;;;;;;;5.00;1.30;;;;;;;;;;5080956;28;20035;-71
2023/03/27 00:21:50;;;;;;;7.43;1.60;;;;;;;;;;5095080;28;20062;-71
2023/03/27 00:24:36;;;;;;;2.05;1.27;;;;;;;;;;5095509;28;20031;-72
2023/03/27 00:27:21;;;;;;;3.88;1.27;;;;;;;;;;5080701;28;20028;-72
2023/03/27 00:30:07;;;;;;;1.85;1.20;;;;;;;;;;5095561;28;20040;-71
2023/03/27 00:32:57;;;;;;;5.13;1.52;;;;;;;;;;5079758;28;20020;-71
2023/03/27 00:35:46;;;;;;;2.33;1.45;;;;;;;;;;5094954;28;20359;-71
2023/03/27 00:38:32;;;;;;;2.55;1.35;;;;;;;;;;5079891;28;20501;-71
2023/03/27 00:41:19;;;;;;;2.33;1.40;;;;;;;;;;5094693;28;20371;-72
2023/03/27 00:44:19;;;;;;;4.60;1.50;;;;;;;;;;5093666;28;20016;-71
2023/03/27 00:47:06;;;;;;;4.47;1.52;;;;;;;;;;5079368;28;20020;-72
2023/03/27 00:49:52;;;;;;;4.43;1.48;;;;;;;;;;5094690;28;20012;-71
2023/03/27 00:52:39;;;;;;;4.43;1.98;;;;;;;;;;5081239;28;20371;-71
2023/03/27 00:55:26;;;;;;;3.35;1.80;;;;;;;;;;5095395;28;20386;-71
2023/03/27 00:58:26;;;;;;;4.35;1.95;;;;;;;;;;5096929;28;20039;-71
2023/03/27 01:01:13;;;;;;;3.08;1.85;;;;;;;;;;5081545;28;20376;-70
2023/03/27 01:04:00;;;;;;;4.15;1.88;;;;;;;;;;5094522;28;20450;-71
2023/03/27 01:06:47;;;;;;;3.10;1.50;;;;;;;;;;5094664;28;20058;-72
2023/03/27 01:09:33;;;;;;;3.50;1.75;;;;;;;;;;5080886;28;20338;-70
2023/03/27 01:12:28;;;;;;;3.83;2.40;;;;;;;;;;5093423;28;20031;-71
2023/03/27 01:15:20;;;;;;;4.13;2.30;;;;;;;;;;5094299;28;20024;-71
2023/03/27 01:18:17;;;;;;;4.60;2.17;;;;;;;;;;5095232;28;20016;-71
2023/03/27 01:21:07;;;;;;;7.00;2.40;;;;;;;;;;5080195;28;20044;-72
2023/03/27 01:23:53;;;;;;;3.83;1.95;;;;;;;;;;5096061;28;20075;-71
2023/03/27 01:26:48;;;;;;;5.47;1.70;;;;;;;;;;5098663;28;20440;-71
2023/03/27 01:29:34;;;;;;;2.97;1.63;;;;;;;;;;5098807;28;20089;-70
2023/03/27 01:32:28;;;;;;;2.47;1.52;;;;;;;;;;5099010;28;20031;-71
2023/03/27 01:35:17;;;;;;;3.08;1.20;;;;;;;;;;5099476;28;20089;-71
2023/03/27 01:38:02;;;;;;;2.80;1.30;;;;;;;;;;5098744;28;20024;-71
2023/03/27 01:41:02;;;;;;;1.77;1.10;;;;;;;;;;5100544;28;20016;-71
2023/03/27 01:43:52;;;;;;;1.70;1.33;;;;;;;;;;5083519;28;20094;-72
2023/03/27 01:46:41;;;;;;;2.58;1.45;;;;;;;;;;5083234;28;20044;-71
2023/03/27 01:49:28;;;;;;;2.38;1.30;;;;;;;;;;5083344;28;20035;-71
2023/03/27 01:52:17;;;;;;;3.78;1.40;;;;;;;;;;5097773;28;20032;-71
2023/03/27 01:55:08;;;;;;;1.50;1.20;;;;;;;;;;5095885;28;20050;-71
2023/03/27 01:57:59;;;;;;;1.50;1.20;;;;;;;;;;5098315;28;20020;-70
2023/03/27 02:00:46;;;;;;;2.47;1.30;;;;;;;;;;5103909;28;20016;-72
2023/03/27 02:03:44;;;;;;;1.85;1.27;;;;;;;;;;5083310;28;20050;-72
2023/03/27 02:06:35;;;;;;;2.92;1.30;;;;;;;;;;5082370;28;20128;-70
2023/03/27 02:09:23;;;;;;;3.90;1.40;;;;;;;;;;5081905;28;20441;-71
2023/03/27 02:12:11;;;;;;;5.03;1.52;;;;;;;;;;5082269;28;20035;-71
2023/03/27 02:15:01;;;;;;;2.53;1.40;;;;;;;;;;5097274;28;20019;-71
2023/03/27 02:17:51;;;;;;;4.97;1.40;;;;;;;;;;5097542;28;20055;-71
2023/03/27 02:20:38;;;;;;;4.28;1.55;;;;;;;;;;5081169;28;20024;-71
2023/03/27 02:23:24;;;;;;;3.10;1.70;;;;;;;;;;5068593;28;20028;-72
2023/03/27 02:26:11;;;;;;;3.63;1.90;;;;;;;;;;5097099;28;20074;-71
2023/03/27 02:28:59;;;;;;;5.60;1.60;;;;;;;;;;5068624;28;20392;-71
2023/03/27 02:31:55;;;;;;;3.60;1.67;;;;;;;;;;5082351;28;20027;-72
2023/03/27 02:34:43;;;;;;;3.63;1.40;;;;;;;;;;5096716;28;20024;-72
2023/03/27 02:37:41;;;;;;;1.73;1.35;;;;;;;;;;5097119;28;20420;-71
2023/03/27 02:40:27;;;;;;;3.45;1.52;;;;;;;;;;5082073;28;20070;-71
2023/03/27 02:43:22;;;;;;;2.10;1.55;;;;;;;;;;5081815;28;20046;-72
2023/03/27 02:46:14;;;;;;;1.80;1.33;;;;;;;;;;5082332;28;20020;-71
2023/03/27 02:49:01;;;;;;;2.22;1.30;;;;;;;;;;5096214;28;20055;-72
2023/03/27 02:51:49;;;;;;;5.13;1.60;;;;;;;;;;5081916;28;20099;-74
2023/03/27 02:54:38;;;;;;;5.10;1.40;;;;;;;;;;5096531;28;20088;-73
2023/03/27 02:57:26;;;;;;;2.75;1.55;;;;;;;;;;5096857;28;20040;-71
2023/03/27 03:00:17;;;;;;;13.85;2.60;;;;;;;;;;5097057;28;20028;-72
2023/03/27 03:03:06;;;;;;;3.42;1.45;;;;;;;;;;5081678;28;20043;-73
2023/03/27 03:05:56;;;;;;;2.63;1.55;;;;;;;;;;5095918;28;20032;-71
2023/03/27 03:08:42;;;;;;;3.05;1.50;;;;;;;;;;5096899;28;20020;-71
2023/03/27 03:11:28;;;;;;;3.35;1.42;;;;;;;;;;5082332;28;20035;-71
2023/03/27 03:14:13;;;;;;;2.00;1.40;;;;;;;;;;5096841;28;20020;-71
2023/03/27 03:16:59;;;;;;;4.03;1.70;;;;;;;;;;5096708;28;20052;-71
2023/03/27 03:19:45;;;;;;;2.80;1.60;;;;;;;;;;5080938;28;20016;-71
2023/03/27 03:22:31;;;;;;;2.00;1.40;;;;;;;;;;5095751;28;20067;-71
2023/03/27 03:25:16;;;;;;;3.97;1.60;;;;;;;;;;5081700;28;20043;-71
2023/03/27 03:28:06;;;;;;;4.60;1.80;;;;;;;;;;5096597;28;20016;-72
2023/03/27 03:30:52;;;;;;;2.92;1.45;;;;;;;;;;5096087;28;20020;-71
2023/03/27 03:33:38;;;;;;;2.08;1.50;;;;;;;;;;5095861;28;20063;-71
2023/03/27 03:36:23;;;;;;;3.60;1.83;;;;;;;;;;5094919;28;20032;-72
2023/03/27 03:39:11;;;;;;;3.28;1.38;;;;;;;;;;5095673;28;20032;-71
2023/03/27 03:41:56;;;;;;;1.95;1.35;;;;;;;;;;5095295;28;20450;-71
2023/03/27 03:44:42;;;;;;;2.33;1.48;;;;;;;;;;5080193;28;20132;-72
2023/03/27 03:47:27;;;;;;;4.10;1.80;;;;;;;;;;5081601;28;20016;-71
2023/03/27 03:50:13;;;;;;;7.07;1.50;;;;;;;;;;5081473;28;20107;-71
2023/03/27 03:52:59;;;;;;;7.85;1.30;;;;;;;;;;5094394;28;20118;-73
2023/03/27 03:55:45;;;;;;;2.28;1.60;;;;;;;;;;5095966;28;20024;-72
2023/03/27 03:58:30;;;;;;;3.88;1.83;;;;;;;;;;5080677;28;20102;-71
2023/03/27 04:01:19;;;;;;;2.05;1.50;;;;;;;;;;5080353;28;20039;-72
2023/03/27 04:04:05;;;;;;;4.13;1.38;;;;;;;;;;5080193;28;20019;-71
2023/03/27 04:06:51;;;;;;;5.43;1.55;;;;;;;;;;5081034;28;20048;-71
2023/03/27 04:09:37;;;;;;;2.20;1.67;;;;;;;;;;5095756;28;20423;-72
2023/03/27 04:12:23;;;;;;;3.35;1.42;;;;;;;;;;5095319;28;20414;-72
2023/03/27 04:15:08;;;;;;;4.80;1.75;;;;;;;;;;5095300;28;20030;-71
2023/03/27 04:17:56;;;;;;;4.22;1.33;;;;;;;;;;5079536;28;20020;-72
2023/03/27 04:20:41;;;;;;;5.70;1.77;;;;;;;;;;5094674;28;20119;-71
2023/03/27 04:23:30;;;;;;;6.55;1.95;;;;;;;;;;5094289;28;20020;-72
2023/03/27 04:26:15;;;;;;;2.78;1.70;;;;;;;;;;5095251;28;20035;-72
2023/03/27 04:29:01;;;;;;;3.75;1.73;;;;;;;;;;5096095;28;20417;-72
2023/03/27 04:31:47;;;;;;;3.95;1.75;;;;;;;;;;5095274;28;20031;-72
2023/03/27 04:34:32;;;;;;;6.28;2.08;;;;;;;;;;5089677;28;20012;-71
2023/03/27 04:37:18;;;;;;;3.03;1.90;;;;;;;;;;5094290;28;20012;-72
2023/03/27 04:40:04;;;;;;;8.13;1.90;;;;;;;;;;5095495;28;20031;-72
2023/03/27 04:42:49;;;;;;;5.97;1.63;;;;;;;;;;5094785;28;20039;-73
2023/03/27 04:45:35;;;;;;;3.13;1.75;;;;;;;;;;5093448;28;20046;-71
2023/03/27 04:48:20;;;;;;;10.95;2.38;;;;;;;;;;5094424;28;20024;-73
2023/03/27 04:51:08;;;;;;;4.95;2.20;;;;;;;;;;5095223;28;20035;-71
2023/03/27 04:53:55;;;;;;;7.10;2.60;;;;;;;;;;5080265;28;20024;-73
2023/03/27 04:56:40;;;;;;;3.55;2.08;;;;;;;;;;5095076;28;20093;-71
2023/03/27 04:59:30;;;;;;;5.95;2.33;;;;;;;;;;5082040;28;20024;-73
2023/03/27 05:02:15;;;;;;;5.65;2.15;;;;;;;;;;5097492;28;20415;-72
2023/03/27 05:05:01;;;;;;;8.63;2.17;;;;;;;;;;5098777;28;20024;-71
2023/03/27 05:07:48;;;;;;;7.88;2.42;;;;;;;;;;5084395;28;20040;-72
2023/03/27 05:10:33;;;;;;;3.83;2.40;;;;;;;;;;5098804;28;20099;-72
2023/03/27 05:13:19;;;;;;;9.52;2.97;;;;;;;;;;5098532;28;20107;-72
2023/03/27 05:16:05;;;;;;;7.18;3.67;;;;;;;;;;5082743;28;20036;-73
2023/03/27 05:18:50;;;;;;;10.25;3.97;;;;;;;;;;5098795;28;20081;-74
2023/03/27 05:21:37;;;;;;;11.93;4.38;;;;;;;;;;5098562;28;20016;-72
2023/03/27 05:24:22;;;;;;;13.52;4.20;;;;;;;;;;5097679;28;20031;-73
2023/03/27 05:27:09;;;;;;;8.10;4.82;;;;;;;;;;5098628;28;20031;-74
2023/03/27 05:29:54;;;;;;;6.97;3.95;;;;;;;;;;5098643;28;20020;-72
2023/03/27 05:32:42;;;;;;;9.93;3.03;;;;;;;;;;5098264;28;20013;-73
2023/03/27 05:35:28;;;;;;;9.45;3.72;;;;;;;;;;5083145;28;20028;-73
2023/03/27 05:38:14;;;;;;;20.73;3.08;;;;;;;;;;5098299;28;20012;-72
2023/03/27 05:41:01;;;;;;;8.63;2.65;;;;;;;;;;5096951;28;20475;-73
2023/03/27 05:43:46;;;;;;;5.13;2.67;;;;;;;;;;5098635;28;20028;-73
2023/03/27 05:46:32;;;;;;;7.53;2.60;;;;;;;;;;5083647;28;20015;-72
2023/03/27 05:49:18;;;;;;;4.90;2.53;;;;;;;;;;5098473;28;20081;-73
2023/03/27 05:52:03;;;;;;;8.65;2.90;;;;;;;;;;5098513;28;20035;-73
2023/03/27 05:54:49;;;;;;;8.07;3.10;;;;;;;;;;5097613;28;20047;-73
2023/03/27 05:57:38;;;;;;;17.85;3.30;;;;;;;;;;5097787;28;20016;-72
2023/03/27 06:00:25;;;;;;;7.45;3.00;;;;;;;;;;5098439;28;20028;-72
2023/03/27 06:03:11;;;;;;;6.32;3.30;;;;;;;;;;5099201;28;20506;-73
2023/03/27 06:05:58;;;;;;;6.85;3.42;;;;;;;;;;5098183;28;20059;-74
2023/03/27 06:08:45;;;;;;;13.10;3.53;;;;;;;;;;5099199;28;20040;-73
2023/03/27 06:11:31;;;;;;;6.78;3.22;;;;;;;;;;5098293;28;20020;-73
2023/03/27 06:14:17;;;;;;;8.60;3.42;;;;;;;;;;5082671;28;20016;-73
2023/03/27 06:17:02;;;;;;;10.30;3.42;;;;;;;;;;5098266;28;20016;-72
2023/03/27 06:19:48;;;;;;;8.18;3.72;;;;;;;;;;5098100;28;20036;-71
2023/03/27 06:22:33;;;;;;;9.00;3.40;;;;;;;;;;5098448;28;20107;-70
2023/03/27 06:25:19;;;;;;;6.07;3.55;;;;;;;;;;5098685;28;20349;-70
2023/03/27 06:28:07;;;;;;;9.82;3.92;;;;;;;;;;5098497;28;20020;-70
2023/03/27 06:30:52;;;;;;;5.47;4.07;;;;;;;;;;5097796;28;20020;-68
2023/03/27 06:33:39;;;;;;;7.22;4.25;;;;;;;;;;5098365;28;20035;-76
2023/03/27 06:36:26;;;;;;;13.55;4.85;;;;;;;;;;5110143;28;20020;-72
2023/03/27 06:39:12;;;;;;;6.85;4.38;;;;;;;;;;5105384;28;20031;-70
2023/03/27 06:41:57;;;;;;;5.85;4.72;;;;;;;;;;5097534;28;20030;-70
2023/03/27 06:44:43;;;;;;;12.10;4.72;;;;;;;;;;5099002;28;20078;-69
2023/03/27 06:47:28;;;;;;;8.05;4.90;;;;;;;;;;5082362;28;20024;-70
2023/03/27 06:50:14;;;;;;;5.85;4.43;;;;;;;;;;5097240;28;20022;-71
2023/03/27 06:53:00;;;;;;;14.82;4.80;;;;;;;;;;5095828;28;20039;-70
2023/03/27 06:55:46;;;;;;;13.25;4.95;;;;;;;;;;5097383;28;20031;-68
2023/03/27 06:58:31;;;;;;;23.23;4.90;;;;;;;;;;5081870;28;20020;-71
2023/03/27 07:01:17;;;;;;;10.98;5.25;;;;;;;;;;5096656;28;20058;-73
2023/03/27 07:04:02;;;;;;;9.88;5.30;;;;;;;;;;5095622;28;20031;-69
2023/03/27 07:06:49;;;;;;;6.88;4.70;;;;;;;;;;5096143;28;20230;-70
2023/03/27 07:09:34;;;;;;;9.60;4.70;;;;;;;;;;5094880;28;20109;-72
2023/03/27 07:12:20;;;;;;;9.80;4.50;;;;;;;;;;5096445;28;20026;-71
2023/03/27 07:15:06;;;;;;;12.13;5.00;;;;;;;;;;5096328;28;20016;-71
2023/03/27 07:17:53;;;;;;;10.93;4.70;;;;;;;;;;5095853;28;20107;-76
2023/03/27 07:20:38;;;;;;;10.00;4.78;;;;;;;;;;5094696;28;20024;-76
2023/03/27 07:23:24;;;;;;;7.50;4.45;;;;;;;;;;5079758;28;20012;-76
2023/03/27 07:26:10;;;;;;;12.45;4.40;;;;;;;;;;5081293;28;20031;-77
2023/03/27 07:28:56;;;;;;;6.47;4.38;;;;;;;;;;5095366;28;20016;-75
2023/03/27 07:31:43;;;;;;;6.43;4.10;;;;;;;;;;5094625;28;20459;-75
2023/03/27 07:34:29;;;;;;;6.68;4.88;;;;;;;;;;5095905;28;20019;-74
2023/03/27 07:37:14;;;;;;;9.52;4.90;;;;;;;;;;5095969;28;20016;-75
2023/03/27 07:40:00;;;;;;;5.55;3.88;;;;;;;;;;5095672;28;20024;-76
2023/03/27 07:42:47;;;;;;;10.90;4.90;;;;;;;;;;5095117;28;20103;-76
2023/03/27 07:45:33;;;;;;;10.00;4.93;;;;;;;;;;5095152;28;20031;-77
2023/03/27 07:48:20;;;;;;;12.02;5.80;;;;;;;;;;5094161;28;20031;-75
2023/03/27 07:51:05;;;;;;;10.48;4.28;;;;;;;;;;5080959;28;20012;-76
2023/03/27 07:53:57;;;;;;;7.53;4.10;;;;;;;;;;5093670;28;20360;-76
2023/03/27 07:56:42;;;;;;;7.80;4.00;;;;;;;;;;5080444;28;20024;-77
2023/03/27 07:59:28;;;;;;;10.35;4.43;;;;;;;;;;5095169;28;20020;-77
2023/03/27 08:02:14;;;;;;;7.93;4.32;;;;;;;;;;5094271;28;20031;-76
2023/03/27 08:05:03;;;;;;;10.75;4.70;;;;;;;;;;5081563;28;20027;-77
2023/03/27 08:07:49;;;;;;;8.48;4.70;;;;;;;;;;5095764;28;20471;-76
2023/03/27 08:10:36;;;;;;;11.90;4.40;;;;;;;;;;5096207;28;20164;-75
2023/03/27 08:13:21;;;;;;;7.10;4.10;;;;;;;;;;5094946;28;20024;-76
2023/03/27 08:16:09;;;;;;;10.25;4.32;;;;;;;;;;5094517;28;20024;-76
2023/03/27 08:18:55;;;;;;;7.10;4.07;;;;;;;;;;5095351;28;20020;-75
2023/03/27 08:21:40;;;;;;;7.22;4.45;;;;;;;;;;5080551;28;20031;-76
2023/03/27 08:24:26;;;;;;;8.68;4.00;;;;;;;;;;5095170;28;20027;-77
2023/03/27 08:27:12;;;;;;;5.97;3.75;;;;;;;;;;5095417;28;20016;-76
2023/03/27 08:29:58;;;;;;;6.60;4.60;;;;;;;;;;5094079;28;20020;-75
2023/03/27 08:32:43;;;;;;;6.13;3.75;;;;;;;;;;5093862;28;20031;-76
2023/03/27 08:35:29;;;;;;;6.20;4.00;;;;;;;;;;5079843;28;20023;-76
2023/03/27 08:38:15;;;;;;;5.85;3.60;;;;;;;;;;5093545;28;20286;-76
2023/03/27 08:41:02;;;;;;;6.65;4.03;;;;;;;;;;5094459;28;20020;-76
2023/03/27 08:43:48;;;;;;;5.60;3.92;;;;;;;;;;5094943;28;20020;-77
2023/03/27 08:46:46;;;;;;;9.43;3.75;;;;;;;;;;5094108;28;20028;-75
2023/03/27 08:49:35;;;;;;;8.85;3.85;;;;;;;;;;5094379;28;20062;-77
2023/03/27 08:52:22;;;;;;;8.02;4.05;;;;;;;;;;5094454;28;20440;-76
2023/03/27 08:55:17;;;;;;;5.63;3.70;;;;;;;;;;5080286;28;20046;-75
2023/03/27 08:58:02;;;;;;;6.80;3.40;;;;;;;;;;5094577;28;20078;-76
2023/03/27 09:00:53;;;;;;;9.15;3.60;;;;;;;;;;5092808;28;20016;-76
2023/03/27 09:03:46;;;;;;;13.48;3.78;;;;;;;;;;5093897;28;20039;-76
2023/03/27 09:06:37;;;;;;;5.75;3.67;;;;;;;;;;5079510;28;20040;-75
2023/03/27 09:09:35;;;;;;;7.47;3.92;;;;;;;;;;5094579;28;20028;-75
2023/03/27 09:12:43;;;;;;;11.52;3.65;;;;;;;;;;5095111;28;20066;-77
2023/03/27 09:15:36;;;;;;;8.82;3.75;;;;;;;;;;5094050;28;20074;-76
2023/03/27 09:18:21;;;;;;;5.75;3.58;;;;;;;;;;5079294;28;20020;-77
2023/03/27 09:21:30;;;;;;;12.88;4.05;;;;;;;;;;5095259;28;20356;-75
2023/03/27 09:24:26;;;;;;;13.13;4.10;;;;;;;;;;5094263;28;20013;-74
2023/03/27 09:27:25;;;;;;;8.45;4.50;;;;;;;;;;5094718;28;20035;-74
2023/03/27 09:30:13;;;;;;;12.98;4.22;;;;;;;;;;5094747;28;20100;-75
2023/03/27 09:33:04;;;;;;;7.10;3.55;;;;;;;;;;5094672;28;20028;-75
2023/03/27 09:35:50;;;;;;;9.07;5.32;;;;;;;;;;4983655;23;20057;-75
2023/03/27 09:38:41;;;;;;;9.68;4.50;;;;;;;;;;5024615;28;20522;-76
2023/03/27 09:41:40;;;;;;;10.38;3.85;;;;;;;;;;5042514;28;20064;-74
2023/03/27 09:44:33;;;;;;;7.22;3.50;;;;;;;;;;5027854;28;20030;-75
2023/03/27 09:47:21;;;;;;;11.80;3.80;;;;;;;;;;5009964;28;20028;-75
2023/03/27 09:50:19;;;;;;;9.98;3.90;;;;;;;;;;5008881;28;20025;-75
2023/03/27 09:53:15;;;;;;;15.75;4.03;;;;;;;;;;5009705;28;20053;-76
2023/03/27 10:03:47;;;;;;;6.28;3.30;;;;;;;;;;5645099;23;20149;-68
2023/03/27 10:06:37;;;;;;;5.13;3.70;;;;;;;;;;4995123;28;20109;-68
2023/03/27 10:09:25;;;;;;;6.60;4.00;;;;;;;;;;4993517;28;20019;-70
2023/03/27 10:12:18;;;;;;;7.55;3.75;;;;;;;;;;4994919;28;20027;-70
2023/03/27 10:15:05;;;;;;;11.23;4.28;;;;;;;;;;4994413;28;20017;-70
2023/03/27 10:17:51;;;;;;;7.15;3.92;;;;;;;;;;4995322;28;20026;-70
2023/03/27 10:20:36;;;;;;;12.70;4.22;;;;;;;;;;4996290;28;20026;-70
2023/03/27 10:23:24;;;;;;;20.33;4.30;;;;;;;;;;4982720;28;20106;-69
2023/03/27 10:26:15;;;;;;;9.88;3.65;;;;;;;;;;4998090;28;20133;-69
2023/03/27 10:29:12;;;;;;;9.63;3.90;;;;;;;;;;4984109;28;20164;-68
2023/03/27 10:31:59;;;;;;;9.10;4.18;;;;;;;;;;4996986;28;20014;-68
2023/03/27 10:34:50;;;;;;;15.65;4.07;;;;;;;;;;4998414;28;20053;-69
2023/03/27 10:37:39;;;;;;;7.03;3.50;;;;;;;;;;4998676;28;20030;-68
2023/03/27 10:40:26;;;;;;;11.60;4.00;;;;;;;;;;4983348;28;20406;-69
2023/03/27 10:43:15;;;;;;;10.80;3.90;;;;;;;;;;4998873;28;20029;-68
2023/03/27 10:46:03;;;;;;;10.65;3.75;;;;;;;;;;4998352;28;20435;-68
2023/03/27 10:48:52;;;;;;;31.10;4.63;;;;;;;;;;4997791;28;20465;-69
2023/03/27 10:51:46;;;;;;;18.55;4.45;;;;;;;;;;4997629;28;20102;-69
2023/03/27 10:54:41;;;;;;;12.52;4.20;;;;;;;;;;4997637;28;20050;-69
2023/03/27 10:57:31;;;;;;;12.68;4.70;;;;;;;;;;4995871;28;20033;-67
2023/03/27 11:00:31;;;;;;;10.63;3.90;;;;;;;;;;4997564;28;20022;-68
2023/03/27 11:03:33;;;;;;;8.52;4.05;;;;;;;;;;4996877;28;20042;-69
2023/03/27 11:06:20;;;;;;;12.13;4.13;;;;;;;;;;4997302;28;20092;-70
2023/03/27 11:09:14;;;;;;;9.57;4.00;;;;;;;;;;4997126;28;20030;-69
2023/03/27 11:12:03;;;;;;;14.70;4.07;;;;;;;;;;4997840;28;20109;-70
2023/03/27 11:15:12;;;;;;;11.63;4.10;;;;;;;;;;4997658;28;20097;-68
2023/03/27 11:18:03;;;;;;;14.43;4.18;;;;;;;;;;4996691;28;20018;-70
2023/03/27 11:20:52;;;;;;;8.02;3.38;;;;;;;;;;4983227;28;20046;-69
2023/03/27 11:23:41;;;;;;;12.93;4.03;;;;;;;;;;4997648;28;20061;-70
2023/03/27 11:26:31;;;;;;;7.75;3.65;;;;;;;;;;4997967;28;20026;-70
2023/03/27 11:29:21;;;;;;;11.90;4.20;;;;;;;;;;4996992;28;20015;-68
2023/03/27 11:32:27;;;;;;;6.53;3.97;;;;;;;;;;4997024;28;20464;-70
2023/03/27 11:35:23;;;;;;;8.00;3.80;;;;;;;;;;4982935;28;20023;-70
2023/03/27 11:38:16;;;;;;;10.35;4.20;;;;;;;;;;4983128;28;20050;-70
2023/03/27 11:41:02;;;;;;;9.10;4.10;;;;;;;;;;4982817;28;20053;-71
2023/03/27 11:43:47;;;;;;;9.13;4.15;;;;;;;;;;4996548;28;20413;-71
2023/03/27 11:47:00;;;;;;;19.27;4.95;;;;;;;;;;4995374;28;20023;-69
2023/03/27 11:49:53;;;;;;;8.07;4.70;;;;;;;;;;4997533;28;20073;-69
2023/03/27 11:52:54;;;;;;;7.38;4.40;;;;;;;;;;4997400;28;20018;-69
2023/03/27 11:55:57;;;;;;;8.52;4.60;;;;;;;;;;4982031;28;20037;-69
2023/03/27 11:58:52;;;;;;;9.55;4.78;;;;;;;;;;4997232;28;20033;-71
2023/03/27 12:02:04;;;;;;;9.48;4.28;;;;;;;;;;4993101;28;20064;-71
2023/03/27 12:04:56;;;;;;;11.55;4.45;;;;;;;;;;4982115;28;20092;-70
2023/03/27 12:07:51;;;;;;;12.60;5.07;;;;;;;;;;4996471;28;20338;-71
2023/03/27 12:10:38;;;;;;;17.30;5.22;;;;;;;;;;4995346;28;20014;-71
2023/03/27 12:13:27;;;;;;;7.43;4.88;;;;;;;;;;4995102;28;20050;-70
2023/03/27 12:16:31;;;;;;;7.75;4.47;;;;;;;;;;4995315;28;20022;-70
2023/03/27 12:19:28;;;;;;;10.57;4.45;;;;;;;;;;4994741;28;20373;-70
2023/03/27 12:22:17;;;;;;;7.30;4.25;;;;;;;;;;4995098;28;20023;-70
2023/03/27 12:25:03;;;;;;;9.45;4.88;;;;;;;;;;4994579;28;20033;-70
2023/03/27 12:28:00;;;;;;;4.72;3.72;;;;;;;;;;4994738;28;20116;-69
2023/03/27 12:30:55;;;;;;;6.22;4.65;;;;;;;;;;4995534;28;20018;-71
2023/03/27 12:33:40;;;;;;;10.25;3.67;;;;;;;;;;4995591;28;20022;-71
2023/03/27 12:36:29;;;;;;;4.18;3.05;;;;;;;;;;4981632;28;20116;-70
2023/03/27 12:39:23;;;;;;;6.13;3.70;;;;;;;;;;4996260;28;20027;-70
2023/03/27 12:42:12;;;;;;;10.15;4.22;;;;;;;;;;4981023;28;20362;-71
2023/03/27 12:45:15;;;;;;;6.88;3.85;;;;;;;;;;4995652;28;20037;-70
2023/03/27 12:48:10;;;;;;;5.10;3.90;;;;;;;;;;4981687;28;20027;-70
2023/03/27 12:50:56;;;;;;;8.02;3.22;;;;;;;;;;4995051;28;20447;-70
2023/03/27 12:53:47;;;;;;;8.32;2.83;;;;;;;;;;4995611;28;20049;-71
2023/03/27 12:56:34;;;;;;;5.43;3.00;;;;;;;;;;4994429;28;20026;-69
2023/03/27 12:59:25;;;;;;;5.38;3.22;;;;;;;;;;4994353;28;20117;-70
2023/03/27 13:02:13;;;;;;;5.88;3.00;;;;;;;;;;4996180;28;20343;-70
2023/03/27 13:05:25;;;;;;;6.43;3.28;;;;;;;;;;4980916;28;20376;-70
2023/03/27 13:08:33;;;;;;;3.72;2.67;;;;;;;;;;4995357;28;20477;-71
2023/03/27 13:11:51;;;;;;;6.25;3.03;;;;;;;;;;4995533;28;20050;-70
2023/03/27 13:14:45;;;;;;;3.80;2.85;;;;;;;;;;4955608;28;20038;-70
2023/03/27 13:17:50;;;;;;;6.95;3.13;;;;;;;;;;4981149;28;20034;-70
2023/03/27 13:20:54;;;;;;;5.93;2.85;;;;;;;;;;4998335;28;20026;-70
2023/03/27 13:23:46;;;;;;;5.63;3.03;;;;;;;;;;4985679;28;20022;-71
2023/03/27 13:26:37;;;;;;;4.43;3.28;;;;;;;;;;4984657;28;20026;-71
2023/03/27 13:29:25;;;;;;;4.63;3.50;;;;;;;;;;4995283;28;20089;-71
2023/03/27 13:32:29;;;;;;;5.40;3.10;;;;;;;;;;4995785;28;20066;-70
2023/03/27 13:35:18;;;;;;;6.53;3.42;;;;;;;;;;4997478;28;20049;-71
2023/03/27 13:38:03;;;;;;;7.22;3.33;;;;;;;;;;4998271;28;20030;-70
2023/03/27 13:40:49;;;;;;;5.40;3.05;;;;;;;;;;4997621;28;20347;-71
2023/03/27 13:43:36;;;;;;;4.25;3.10;;;;;;;;;;4997433;28;20018;-70
2023/03/27 13:46:24;;;;;;;14.27;3.50;;;;;;;;;;4996333;28;20018;-72
2023/03/27 13:49:26;;;;;;;4.80;3.08;;;;;;;;;;4998780;28;20022;-73
2023/03/27 13:52:35;;;;;;;6.70;3.20;;;;;;;;;;4999584;28;20080;-72
2023/03/27 13:55:33;;;;;;;5.97;3.53;;;;;;;;;;4999495;28;20023;-72
2023/03/27 13:58:25;;;;;;;5.70;3.40;;;;;;;;;;4999626;28;20022;-71
2023/03/27 14:01:29;;;;;;;7.70;3.92;;;;;;;;;;4998047;28;20061;-70
2023/03/27 14:04:20;;;;;;;6.90;4.07;;;;;;;;;;4999736;28;20073;-72
2023/03/27 14:07:12;;;;;;;8.75;4.22;;;;;;;;;;4984274;28;20331;-71
2023/03/27 14:10:16;;;;;;;6.10;4.13;;;;;;;;;;4998533;28;20121;-70
2023/03/27 14:13:05;;;;;;;7.32;3.75;;;;;;;;;;4997882;28;20045;-71
2023/03/27 14:16:03;;;;;;;5.53;3.80;;;;;;;;;;4985471;28;20097;-71
2023/03/27 14:18:48;;;;;;;5.80;3.75;;;;;;;;;;4999140;28;20015;-70
2023/03/27 14:24:18;;;;;;;5.82;3.60;;;;;;;;;;5083170;23;20130;-70
2023/03/27 14:27:06;;;;;;;6.65;4.10;;;;;;;;;;4956616;29;20359;-70
2023/03/27 14:30:06;;;;;;;7.38;4.28;;;;;;;;;;4958070;28;20034;-70
2023/03/27 14:32:53;;;;;;;9.40;3.90;;;;;;;;;;4943760;29;20024;-70
2023/03/27 14:35:42;;;;;;;8.07;3.80;;;;;;;;;;4958808;28;20106;-71
2023/03/27 14:38:29;;;;;;;6.97;4.03;;;;;;;;;;4957474;28;20118;-71
2023/03/27 14:41:20;;;;;;;4.85;3.55;;;;;;;;;;4957086;28;20363;-72
2023/03/27 14:44:07;;;;;;;7.45;3.67;;;;;;;;;;4957009;28;20073;-70
2023/03/27 14:46:58;;;;;;;9.27;4.22;;;;;;;;;;4957634;28;20051;-71
2023/03/27 14:49:47;;;;;;;6.68;3.97;;;;;;;;;;4943659;28;20089;-72
2023/03/27 14:52:36;;;;;;;15.65;4.60;;;;;;;;;;4957220;28;20416;-71
2023/03/27 14:55:24;;;;;;;9.73;4.40;;;;;;;;;;4957258;28;20023;-71
2023/03/27 14:58:17;;;;;;;7.28;3.75;;;;;;;;;;4957205;28;20015;-70
2023/03/27 15:01:03;;;;;;;7.80;4.70;;;;;;;;;;4961724;28;20051;-71
2023/03/27 15:03:51;;;;;;;6.07;3.60;;;;;;;;;;4982478;28;20031;-69
2023/03/27 15:06:37;;;;;;;5.80;4.05;;;;;;;;;;4985524;28;20105;-70
2023/03/27 15:09:23;;;;;;;5.25;4.03;;;;;;;;;;4969296;28;20015;-69
2023/03/27 15:12:12;;;;;;;6.43;4.13;;;;;;;;;;4942179;28;20047;-71
2023/03/27 15:14:58;;;;;;;5.78;4.15;;;;;;;;;;4956165;29;20023;-73
2023/03/27 15:17:45;;;;;;;7.65;4.50;;;;;;;;;;4955148;29;20154;-73
2023/03/27 15:20:33;;;;;;;6.47;4.03;;;;;;;;;;4956511;28;20455;-72
2023/03/27 15:23:19;;;;;;;7.78;4.10;;;;;;;;;;4926619;28;1163223;-72
2023/03/27 15:26:04;;;;;;;5.75;3.97;;;;;;;;;;4989341;28;20093;-73
2023/03/27 15:29:02;;;;;;;7.45;4.07;;;;;;;;;;4978160;28;20101;-73
2023/03/27 15:31:49;;;;;;;7.00;4.40;;;;;;;;;;4976378;28;20077;-73
2023/03/27 15:34:46;;;;;;;6.40;4.30;;;;;;;;;;4962842;28;20051;-72
2023/03/27 15:37:31;;;;;;;6.15;3.88;;;;;;;;;;4963450;28;20026;-70
2023/03/27 15:40:23;;;;;;;5.53;3.72;;;;;;;;;;4975140;28;20030;-74
2023/03/27 15:43:12;;;;;;;6.68;3.80;;;;;;;;;;4974694;28;20098;-74
2023/03/27 15:46:17;;;;;;;5.93;3.95;;;;;;;;;;4975481;28;20551;-73
2023/03/27 15:49:18;;;;;;;5.55;4.10;;;;;;;;;;4975407;28;20351;-75
2023/03/27 15:52:36;;;;;;;5.57;4.10;;;;;;;;;;4978387;28;20029;-73
2023/03/27 15:55:32;;;;;;;5.70;4.53;;;;;;;;;;4944752;28;20038;-74
2023/03/27 15:58:30;;;;;;;8.88;4.70;;;;;;;;;;4975014;28;20036;-74
2023/03/27 16:01:26;;;;;;;7.15;5.07;;;;;;;;;;4961824;28;20034;-73
2023/03/27 16:04:13;;;;;;;6.10;4.53;;;;;;;;;;4975561;28;20023;-72
2023/03/27 16:07:12;;;;;;;7.22;4.32;;;;;;;;;;4975769;28;20019;-73
2023/03/27 16:10:01;;;;;;;6.82;4.70;;;;;;;;;;4975874;28;20019;-73
2023/03/27 16:12:58;;;;;;;7.07;4.95;;;;;;;;;;4976528;28;20030;-74
2023/03/27 16:15:54;;;;;;;7.13;4.68;;;;;;;;;;4975894;28;20146;-70
2023/03/27 16:18:40;;;;;;;6.88;4.57;;;;;;;;;;4975483;28;20042;-73
2023/03/27 16:21:26;;;;;;;9.05;5.00;;;;;;;;;;4974631;28;20029;-73
2023/03/27 16:24:12;;;;;;;6.05;4.40;;;;;;;;;;4962069;28;20494;-72
2023/03/27 16:26:57;;;;;;;9.63;5.47;;;;;;;;;;4976073;28;20026;-72
2023/03/27 16:29:43;;;;;;;7.78;4.43;;;;;;;;;;4977315;28;20019;-72
2023/03/27 16:32:28;;;;;;;9.60;4.40;;;;;;;;;;4974226;28;20042;-72
2023/03/27 16:35:14;;;;;;;7.53;4.68;;;;;;;;;;4975533;28;20027;-74
2023/03/27 16:38:00;;;;;;;6.65;5.05;;;;;;;;;;4975383;28;20023;-72
2023/03/27 16:40:46;;;;;;;6.90;5.20;;;;;;;;;;4975869;28;20114;-73
2023/03/27 16:43:31;;;;;;;8.77;5.35;;;;;;;;;;4975495;28;20026;-74
2023/03/27 16:46:20;;;;;;;11.73;5.93;;;;;;;;;;4976037;28;20037;-73
2023/03/27 16:49:06;;;;;;;11.02;6.45;;;;;;;;;;4976066;28;20050;-72
2023/03/27 16:51:51;;;;;;;11.68;6.70;;;;;;;;;;4975449;28;20464;-73
2023/03/27 16:54:37;;;;;;;10.77;6.78;;;;;;;;;;4975329;28;20096;-73
2023/03/27 16:57:24;;;;;;;11.10;6.85;;;;;;;;;;4962288;28;20054;-75
2023/03/27 17:00:10;;;;;;;8.18;6.07;;;;;;;;;;4976825;28;20030;-74
2023/03/27 17:02:56;;;;;;;10.40;7.38;;;;;;;;;;4976231;28;20408;-74
2023/03/27 17:05:42;;;;;;;11.63;7.38;;;;;;;;;;4976119;28;20457;-75